Time;durP1;ratioP1;P1;durP2;ratioP2;P2;SDS_P1;SDS_P2;PMS_P1;PMS_P2;Temp;Humidity;BMP_temperature;BMP_pressure;BME280_temperature;BME280_humidity;BME280_pressure;Samples;Min_cycle;Max_cycle;Signal;HPM_P1;HPM_P2
2021/03/24 00:00:28;;;;;;;6.47;4.25;;;;;;;3.08;88.58;99790.34;5091215;28;20078;-70
2021/03/24 00:02:57;;;;;;;12.10;7.15;;;;;;;3.00;88.64;99782.00;5090756;28;20028;-70
2021/03/24 00:05:35;;;;;;;24.30;12.65;;;;;;;3.30;86.71;99771.06;5091044;28;20513;-70
2021/03/24 00:08:04;;;;;;;18.17;12.13;;;;;;;3.37;86.38;99770.19;5072906;28;20564;-70
2021/03/24 00:10:30;;;;;;;22.55;14.27;;;;;;;2.87;88.79;99769.47;5072994;28;20039;-70
2021/03/24 00:12:59;;;;;;;22.63;13.63;;;;;;;2.77;88.81;99782.84;5072827;28;20020;-70
2021/03/24 00:15:28;;;;;;;22.38;13.00;;;;;;;2.92;88.46;99775.28;5072858;28;20135;-71
2021/03/24 00:17:55;;;;;;;23.88;12.35;;;;;;;2.79;88.77;99776.16;5091120;28;20077;-70
2021/03/24 00:20:26;;;;;;;23.52;13.93;;;;;;;2.84;87.91;99774.47;5072698;28;20048;-71
2021/03/24 00:22:52;;;;;;;21.25;13.55;;;;;;;2.76;88.58;99786.16;5091004;28;20544;-71
2021/03/24 00:25:18;;;;;;;17.45;10.80;;;;;;;2.72;88.72;99780.31;5090727;28;20109;-70
2021/03/24 00:27:47;;;;;;;15.02;9.00;;;;;;;2.81;88.99;99777.84;5072649;28;20031;-71
2021/03/24 00:30:17;;;;;;;8.07;5.88;;;;;;;2.69;89.29;99772.81;5072720;28;20569;-70
2021/03/24 00:32:43;;;;;;;8.65;5.63;;;;;;;2.77;88.67;99771.16;5072641;28;20020;-71
2021/03/24 00:35:17;;;;;;;7.68;4.60;;;;;;;2.47;90.17;99771.97;5090769;28;20039;-70
2021/03/24 00:37:43;;;;;;;7.68;4.53;;;;;;;2.52;91.03;99770.28;5090888;28;20031;-72
2021/03/24 00:40:14;;;;;;;10.20;6.28;;;;;;;2.59;89.80;99766.94;5072589;28;20027;-70
2021/03/24 00:42:42;;;;;;;;;;;;;;;2.91;88.50;99764.41;5091099;28;20028;-70
2021/03/24 00:45:10;;;;;;;13.50;9.00;;;;;;;2.72;90.20;99772.78;5073283;28;19919;-70
2021/03/24 00:47:37;;;;;;;27.25;16.42;;;;;;;2.76;88.89;99759.41;5090678;28;20512;-71
2021/03/24 00:50:05;;;;;;;26.33;15.45;;;;;;;2.55;89.39;99772.81;5072564;28;20075;-71
2021/03/24 00:52:31;;;;;;;27.92;16.70;;;;;;;2.64;89.95;99776.97;5072681;28;20073;-70
2021/03/24 00:54:57;;;;;;;27.80;16.95;;;;;;;2.67;89.74;99772.78;5072522;28;20119;-70
2021/03/24 00:57:23;;;;;;;28.58;16.60;;;;;;;2.31;90.32;99765.25;5072726;28;20028;-70
2021/03/24 00:59:49;;;;;;;20.05;12.45;;;;;;;2.37;90.74;99771.94;5072218;28;20034;-71
2021/03/24 01:02:15;;;;;;;11.80;7.47;;;;;;;2.75;89.73;99775.31;5090604;28;20062;-71
2021/03/24 01:04:42;;;;;;;8.65;6.13;;;;;;;2.65;89.29;99774.47;5090729;28;20107;-70
2021/03/24 01:07:10;;;;;;;7.97;5.22;;;;;;;2.65;88.47;99763.63;5072267;28;20066;-71
2021/03/24 01:09:36;;;;;;;7.47;5.22;;;;;;;2.50;90.04;99768.59;5090443;28;20098;-71
2021/03/24 01:12:03;;;;;;;5.70;4.30;;;;;;;2.55;88.94;99774.47;5090517;28;20030;-71
2021/03/24 01:14:30;;;;;;;6.63;4.50;;;;;;;2.94;86.61;99761.06;5074394;28;20055;-70
2021/03/24 01:16:56;;;;;;;9.95;5.68;;;;;;;3.00;86.91;99764.41;5094326;28;20452;-70
2021/03/24 01:19:23;;;;;;;8.70;6.25;;;;;;;2.78;87.86;99762.75;5094205;28;20107;-70
2021/03/24 01:21:49;;;;;;;15.13;8.80;;;;;;;3.12;87.39;99756.88;5094109;28;20111;-73
2021/03/24 01:24:14;;;;;;;14.60;8.43;;;;;;;2.90;87.32;99760.25;5075747;28;20570;-71
2021/03/24 01:26:40;;;;;;;14.10;8.52;;;;;;;3.27;85.36;99755.97;5094054;28;20035;-70
2021/03/24 01:29:06;;;;;;;16.75;9.48;;;;;;;2.96;86.89;99750.19;5093831;28;20027;-70
2021/03/24 01:31:32;;;;;;;16.27;8.95;;;;;;;3.13;86.40;99747.69;5094078;28;20042;-71
2021/03/24 01:33:59;;;;;;;39.42;19.95;;;;;;;2.97;85.47;99759.38;5093887;28;20480;-70
2021/03/24 01:36:28;;;;;;;19.92;11.57;;;;;;;2.92;87.18;99751.03;5075763;28;20035;-70
2021/03/24 01:38:55;;;;;;;17.35;10.60;;;;;;;3.11;87.19;99751.88;5075537;28;20035;-70
2021/03/24 01:41:25;;;;;;;13.65;8.13;;;;;;;3.34;85.80;99750.97;5093735;28;20032;-71
2021/03/24 01:43:51;;;;;;;39.30;19.75;;;;;;;3.45;84.10;99744.22;5075861;28;20025;-70
2021/03/24 01:46:20;;;;;;;34.78;18.38;;;;;;;3.36;84.35;99749.28;5075359;28;20028;-70
2021/03/24 01:48:49;;;;;;;20.83;11.73;;;;;;;3.23;86.59;99752.66;5093614;28;20115;-71
2021/03/24 01:51:18;;;;;;;19.25;11.32;;;;;;;3.05;85.81;99745.16;5093677;28;20119;-71
2021/03/24 01:53:48;;;;;;;20.40;11.88;;;;;;;3.25;86.67;99738.41;5075401;28;20496;-70
2021/03/24 01:56:15;;;;;;;15.00;9.95;;;;;;;3.03;86.08;99719.22;5093392;28;20032;-70
2021/03/24 01:58:42;;;;;;;13.80;9.10;;;;;;;3.20;86.30;99740.13;5075446;28;20129;-70
2021/03/24 02:01:14;;;;;;;19.23;13.13;;;;;;;2.86;87.94;99752.72;5075072;28;20410;-70
2021/03/24 02:03:39;;;;;;;20.83;15.25;;;;;;;3.22;86.68;99737.59;5075079;28;20024;-70
2021/03/24 02:06:30;;;;;;;14.50;9.98;;;;;;;2.84;88.62;99745.19;5075814;28;20115;-70
2021/03/24 02:09:09;;;;;;;16.92;12.43;;;;;;;2.83;88.65;99743.53;5093592;28;20032;-70
2021/03/24 02:11:49;;;;;;;14.98;10.73;;;;;;;2.94;88.78;99761.91;5093140;28;20031;-70
2021/03/24 02:14:25;;;;;;;12.23;8.90;;;;;;;2.96;88.67;99761.91;5074905;28;20507;-70
2021/03/24 02:16:53;;;;;;;10.82;6.80;;;;;;;2.99;88.87;99760.22;5093134;28;20573;-70
2021/03/24 02:19:51;;;;;;;9.55;6.20;;;;;;;3.16;87.16;99763.56;5093057;28;20477;-70
2021/03/24 02:22:23;;;;;;;10.48;6.68;;;;;;;2.93;89.43;99771.97;5085920;28;20032;-70
2021/03/24 02:24:58;;;;;;;9.57;6.60;;;;;;;3.03;89.09;99781.16;5062958;28;20060;-69
2021/03/24 02:27:32;;;;;;;9.63;6.75;;;;;;;3.03;89.00;99764.41;5051510;28;20175;-71
2021/03/24 02:30:08;;;;;;;17.23;11.50;;;;;;;3.31;87.11;99771.06;5052724;28;20024;-70
2021/03/24 02:32:39;;;;;;;16.35;10.63;;;;;;;3.19;88.60;99760.22;5052631;28;20029;-70
2021/03/24 02:35:17;;;;;;;8.53;6.63;;;;;;;3.25;88.33;99768.56;5051149;28;20422;-71
2021/03/24 02:37:44;;;;;;;11.00;7.80;;;;;;;3.37;87.62;99762.66;5051246;28;20119;-71
2021/03/24 02:40:16;;;;;;;11.43;8.10;;;;;;;3.50;86.52;99761.81;5052433;28;20066;-70
2021/03/24 02:42:47;;;;;;;11.98;7.97;;;;;;;3.27;88.00;99750.97;5051106;28;20032;-70
2021/03/24 02:45:16;;;;;;;11.13;7.60;;;;;;;3.13;89.16;99761.03;5051102;28;20025;-70
2021/03/24 02:47:45;;;;;;;10.45;7.30;;;;;;;3.31;88.42;99758.50;5052223;28;20410;-70
2021/03/24 02:50:12;;;;;;;10.93;7.25;;;;;;;3.21;88.04;99754.31;5050994;28;20021;-70
2021/03/24 02:52:38;;;;;;;11.75;7.55;;;;;;;3.34;88.01;99757.66;5052346;28;20036;-70
2021/03/24 02:55:06;;;;;;;11.93;8.55;;;;;;;3.38;87.28;99757.66;5050958;28;20086;-70
2021/03/24 02:57:32;;;;;;;12.15;7.43;;;;;;;3.22;88.49;99765.22;5050720;28;20121;-68
2021/03/24 03:00:00;;;;;;;11.63;7.47;;;;;;;3.29;89.15;99762.69;5050756;28;20021;-70
2021/03/24 03:02:28;;;;;;;9.75;6.50;;;;;;;3.31;88.77;99771.06;5050649;28;20075;-71
2021/03/24 03:05:03;;;;;;;9.27;6.80;;;;;;;3.42;88.80;99776.91;5050856;28;20031;-70
2021/03/24 03:07:38;;;;;;;9.20;6.72;;;;;;;2.94;90.21;99776.13;5051997;28;20082;-71
2021/03/24 03:10:06;;;;;;;11.13;7.50;;;;;;;3.02;90.63;99784.50;5050482;28;20025;-70
2021/03/24 03:12:43;;;;;;;11.70;8.07;;;;;;;2.98;88.93;99780.31;5051610;28;20033;-71
2021/03/24 03:15:18;;;;;;;13.98;8.48;;;;;;;3.35;87.91;99756.81;5051647;28;20029;-70
2021/03/24 03:17:51;;;;;;;11.07;7.88;;;;;;;3.16;88.79;99766.06;5051721;28;20036;-69
2021/03/24 03:20:25;;;;;;;11.73;7.90;;;;;;;3.19;88.45;99766.06;5051771;28;20021;-70
2021/03/24 03:23:04;;;;;;;11.15;7.78;;;;;;;3.22;89.21;99772.75;5051634;28;20037;-71
2021/03/24 03:25:37;;;;;;;12.48;8.90;;;;;;;3.15;89.15;99773.63;5050175;28;20496;-70
2021/03/24 03:28:16;;;;;;;13.45;9.60;;;;;;;2.98;88.84;99788.69;5051204;28;20472;-70
2021/03/24 03:30:48;;;;;;;16.65;10.45;;;;;;;3.10;88.89;99781.16;5051382;28;20028;-70
2021/03/24 03:33:23;;;;;;;14.82;9.60;;;;;;;2.96;89.87;99794.53;5050211;28;20035;-70
2021/03/24 03:35:52;;;;;;;12.13;8.35;;;;;;;2.93;89.52;99797.06;5050753;28;20040;-71
2021/03/24 03:38:20;;;;;;;11.75;8.25;;;;;;;2.81;90.47;99785.38;5049889;28;20445;-71
2021/03/24 03:40:47;;;;;;;12.45;8.77;;;;;;;2.97;89.15;99791.22;5051479;28;20090;-70
2021/03/24 03:43:17;;;;;;;12.57;8.75;;;;;;;3.09;89.70;99806.25;5051144;28;20044;-71
2021/03/24 03:45:45;;;;;;;14.55;9.63;;;;;;;2.83;90.64;99812.97;5049817;28;20425;-70
2021/03/24 03:48:13;;;;;;;17.23;10.40;;;;;;;2.89;90.77;99803.75;5051168;28;20036;-71
2021/03/24 03:50:40;;;;;;;18.17;9.93;;;;;;;2.90;90.19;99805.41;5051355;28;20029;-71
2021/03/24 03:53:06;;;;;;;15.68;9.70;;;;;;;2.89;91.17;99811.28;5049802;28;20032;-70
2021/03/24 03:55:45;;;;;;;16.80;10.75;;;;;;;3.05;90.85;99812.94;5049859;28;20033;-70
2021/03/24 03:58:23;;;;;;;15.05;10.38;;;;;;;2.95;91.08;99821.31;5049754;28;20064;-70
2021/03/24 04:00:58;;;;;;;20.75;14.40;;;;;;;3.09;90.17;99819.63;5049706;28;20041;-71
2021/03/24 04:03:42;;;;;;;16.90;11.63;;;;;;;3.11;89.22;99820.47;5049812;28;20017;-71
2021/03/24 04:06:14;;;;;;;14.35;9.38;;;;;;;2.67;91.56;99836.38;5051074;28;20068;-71
2021/03/24 04:08:40;;;;;;;11.40;7.63;;;;;;;2.08;92.59;99834.53;5049504;28;20433;-70
2021/03/24 04:11:09;;;;;;;10.18;6.47;;;;;;;2.06;94.16;99838.72;5050856;28;20024;-70
2021/03/24 04:13:40;;;;;;;9.35;6.75;;;;;;;2.25;94.21;99840.47;5049689;28;20517;-70
2021/03/24 04:16:06;;;;;;;13.65;7.68;;;;;;;2.24;93.66;99846.28;5050450;28;20494;-70
2021/03/24 04:18:42;;;;;;;11.65;6.53;;;;;;;2.31;92.26;99840.47;5049382;28;20037;-70
2021/03/24 04:21:10;;;;;;;11.80;6.13;;;;;;;2.33;92.71;99837.97;5050906;28;20104;-70
2021/03/24 04:23:44;;;;;;;8.02;4.80;;;;;;;2.05;93.06;99836.19;5050653;28;20041;-70
2021/03/24 04:26:25;;;;;;;7.78;4.97;;;;;;;2.01;93.70;99840.38;5088707;28;20048;-70
2021/03/24 04:28:56;;;;;;;7.22;4.63;;;;;;;1.96;94.77;99834.47;5072872;28;20413;-69
2021/03/24 04:31:26;;;;;;;7.78;5.07;;;;;;;2.05;94.61;99849.56;5090793;28;20106;-71
2021/03/24 04:33:52;;;;;;;8.52;6.22;;;;;;;1.93;94.88;99848.69;5072520;28;20043;-70
2021/03/24 04:36:35;;;;;;;8.73;5.85;;;;;;;1.88;95.39;99855.34;5072655;28;20062;-70
2021/03/24 04:39:17;;;;;;;11.63;7.18;;;;;;;2.19;94.68;99855.47;5090828;28;20028;-70
2021/03/24 04:41:45;;;;;;;13.45;7.63;;;;;;;2.03;94.87;99855.41;5090639;28;20733;-70
2021/03/24 04:44:34;;;;;;;12.27;7.70;;;;;;;2.01;95.62;99865.44;5072460;28;20028;-71
2021/03/24 04:47:18;;;;;;;14.45;8.18;;;;;;;1.86;95.64;99835.31;5071806;28;20097;-70
2021/03/24 04:49:55;;;;;;;13.57;7.82;;;;;;;2.33;94.97;99865.56;5077254;28;20031;-71
2021/03/24 04:52:21;;;;;;;13.20;8.73;;;;;;;2.83;92.30;99864.00;5094776;28;20028;-70
2021/03/24 04:54:50;;;;;;;12.55;8.80;;;;;;;2.36;93.36;99878.09;5095038;28;20086;-70
2021/03/24 04:57:22;;;;;;;14.73;9.10;;;;;;;2.47;93.39;99873.97;5094931;28;20031;-71
2021/03/24 04:59:52;;;;;;;14.55;8.95;;;;;;;2.21;94.72;99873.88;5094422;28;20028;-71
2021/03/24 05:02:28;;;;;;;14.48;9.45;;;;;;;2.34;95.01;99875.59;5073286;28;20027;-72
2021/03/24 05:05:25;;;;;;;14.68;9.57;;;;;;;2.37;94.63;99882.28;5060435;28;20038;-70
2021/03/24 05:08:01;;;;;;;15.25;10.10;;;;;;;2.44;94.10;99878.94;5094064;28;20027;-71
2021/03/24 05:10:31;;;;;;;16.55;10.57;;;;;;;2.26;94.46;99884.75;5093337;28;20039;-72
2021/03/24 05:13:27;;;;;;;17.00;10.70;;;;;;;2.29;94.68;99893.97;5075945;28;20024;-71
2021/03/24 05:15:59;;;;;;;14.52;9.90;;;;;;;2.33;94.14;99893.13;5075785;28;20032;-71
2021/03/24 05:18:25;;;;;;;;;;;;;;;2.07;94.74;99897.19;5093570;28;20036;-70
2021/03/24 05:20:54;;;;;;;15.02;9.70;;;;;;;2.21;94.64;99903.13;5092574;28;19918;-71
2021/03/24 05:23:24;;;;;;;16.98;10.10;;;;;;;2.06;93.99;99908.06;5092820;28;20063;-70
2021/03/24 05:26:22;;;;;;;16.30;10.48;;;;;;;2.23;92.82;99893.94;5073625;28;20063;-70
2021/03/24 05:28:53;;;;;;;15.32;9.77;;;;;;;2.27;93.24;99918.19;5075250;28;20403;-70
2021/03/24 05:31:26;;;;;;;13.43;8.23;;;;;;;1.76;94.59;99908.75;5093538;28;20485;-71
2021/03/24 05:34:00;;;;;;;15.65;10.38;;;;;;;2.08;94.63;99921.44;5092934;28;20051;-71
2021/03/24 05:36:34;;;;;;;16.55;10.68;;;;;;;1.98;95.17;99918.03;5075444;28;20039;-71
2021/03/24 05:39:10;;;;;;;12.85;7.50;;;;;;;1.73;95.81;99921.25;5093791;28;20024;-71
2021/03/24 05:41:46;;;;;;;12.93;7.57;;;;;;;1.81;96.06;99923.78;5074922;28;20106;-70
2021/03/24 05:44:22;;;;;;;18.35;9.73;;;;;;;1.88;95.68;99928.03;5091348;28;20511;-71
2021/03/24 05:47:25;;;;;;;13.82;8.13;;;;;;;1.88;95.68;99931.38;5069900;28;20056;-71
2021/03/24 05:50:15;;;;;;;16.00;9.45;;;;;;;2.11;95.12;99932.31;5088784;28;20553;-71
2021/03/24 05:52:49;;;;;;;18.60;12.18;;;;;;;2.42;94.29;99926.59;4719099;28;10001175;-71
2021/03/24 05:55:25;;;;;;;15.00;9.95;;;;;;;2.21;94.53;99928.19;5068103;28;20040;-69
2021/03/24 05:58:09;;;;;;;19.70;11.02;;;;;;;2.38;94.37;99939.13;5067484;28;20028;-70
2021/03/24 06:01:00;;;;;;;13.20;8.48;;;;;;;2.33;92.44;99935.78;5067115;28;20741;-71
2021/03/24 06:04:03;;;;;;;14.07;8.18;;;;;;;2.26;89.57;99941.56;5067244;28;20032;-69
2021/03/24 06:06:44;;;;;;;14.35;7.95;;;;;;;2.20;89.79;99944.88;5050747;28;20036;-71
2021/03/24 06:09:38;;;;;;;9.60;6.30;;;;;;;2.71;86.28;99946.78;5050302;28;20036;-71
2021/03/24 06:12:32;;;;;;;11.93;7.85;;;;;;;2.91;83.40;99952.66;5068826;28;20095;-71
2021/03/24 06:15:11;;;;;;;14.00;8.93;;;;;;;3.23;80.13;99951.03;5067875;28;20517;-70
2021/03/24 06:18:27;;;;;;;12.45;6.95;;;;;;;3.10;77.94;99958.56;5067608;28;20055;-72
2021/03/24 06:21:04;;;;;;;8.65;6.30;;;;;;;3.06;72.08;99956.88;5022294;28;20101;-71
2021/03/24 06:24:08;;;;;;;7.93;5.40;;;;;;;3.25;68.52;99974.50;5067744;28;20068;-72
2021/03/24 06:26:59;;;;;;;6.32;4.45;;;;;;;3.16;65.91;99969.47;4996653;28;20064;-70
2021/03/24 06:30:20;;;;;;;5.82;4.35;;;;;;;3.21;64.37;99970.28;5027639;28;20037;-71
2021/03/24 06:32:52;;;;;;;7.43;4.88;;;;;;;3.31;65.87;99973.66;5013638;28;20107;-70
2021/03/24 06:35:25;;;;;;;8.48;5.20;;;;;;;3.10;64.57;99964.44;5028446;28;20029;-72
2021/03/24 06:38:09;;;;;;;7.22;4.47;;;;;;;3.17;63.68;99972.81;5028156;28;20033;-71
2021/03/24 06:41:12;;;;;;;7.20;4.30;;;;;;;3.06;63.43;99976.97;5028459;28;20039;-71
2021/03/24 06:43:49;;;;;;;8.25;4.88;;;;;;;3.20;63.26;99983.72;5027757;28;20025;-74
2021/03/24 06:46:35;;;;;;;7.38;4.40;;;;;;;3.25;62.64;99982.03;5027208;28;20041;-71
2021/03/24 06:49:20;;;;;;;8.35;4.97;;;;;;;3.23;62.91;99988.72;5028597;28;20034;-72
2021/03/24 06:52:10;;;;;;;6.75;3.50;;;;;;;3.16;61.07;99994.56;5041566;28;20088;-72
2021/03/24 06:54:54;;;;;;;6.95;4.05;;;;;;;3.53;61.10;100006.34;5046700;28;20037;-71
2021/03/24 06:57:40;;;;;;;12.57;5.43;;;;;;;3.51;62.47;100013.03;5046723;28;21037;-71
2021/03/24 07:00:35;;;;;;;10.48;5.88;;;;;;;3.34;62.86;100014.72;5047286;28;20113;-71
2021/03/24 07:03:36;;;;;;;10.20;5.30;;;;;;;2.87;62.30;100022.94;5046793;28;20059;-72
2021/03/24 07:06:05;;;;;;;8.65;4.90;;;;;;;3.04;62.79;100029.69;5045874;28;20732;-70
2021/03/24 07:08:43;;;;;;;8.52;4.72;;;;;;;3.06;62.54;100025.53;5045274;28;20083;-71
2021/03/24 07:11:22;;;;;;;8.23;4.70;;;;;;;2.98;61.33;100032.19;5062276;28;20423;-71
2021/03/24 07:13:55;;;;;;;6.88;4.68;;;;;;;2.85;62.50;100035.50;5047179;28;20369;-72
2021/03/24 07:16:48;;;;;;;10.63;4.95;;;;;;;2.76;63.39;100037.13;5045837;28;20048;-72
2021/03/24 07:19:32;;;;;;;8.18;4.07;;;;;;;2.70;63.26;100047.13;5045437;28;20528;-71
2021/03/24 07:22:22;;;;;;;7.95;4.90;;;;;;;2.92;63.62;100052.25;5047480;28;20037;-71
2021/03/24 07:24:59;;;;;;;6.25;4.57;;;;;;;3.02;63.79;100043.91;5045942;28;20052;-72
2021/03/24 07:27:34;;;;;;;7.95;5.20;;;;;;;3.56;62.72;100052.41;5047451;28;20072;-72
2021/03/24 07:30:17;;;;;;;7.75;5.32;;;;;;;3.28;63.33;100054.03;5047156;28;20049;-71
2021/03/24 07:32:49;;;;;;;8.80;5.70;;;;;;;4.56;65.24;100058.19;5045147;28;20500;-72
2021/03/24 07:35:47;;;;;;;7.78;5.40;;;;;;;3.61;62.09;100065.81;5047115;28;20051;-70
2021/03/24 07:38:41;;;;;;;7.40;5.55;;;;;;;4.36;60.32;100070.81;5045851;28;20569;-72
2021/03/24 07:41:46;;;;;;;8.52;4.68;;;;;;;3.94;59.99;100083.44;5046259;28;20083;-71
2021/03/24 07:44:21;;;;;;;6.38;3.45;;;;;;;3.68;59.14;100077.56;5044939;28;20037;-72
2021/03/24 07:47:05;;;;;;;6.13;4.28;;;;;;;3.84;59.70;100075.06;5045887;28;20927;-72
2021/03/24 07:49:37;;;;;;;6.00;3.60;;;;;;;4.04;59.84;100070.84;5045299;28;20025;-70
2021/03/24 07:52:31;;;;;;;7.13;3.60;;;;;;;3.62;59.85;100080.91;5046520;28;20098;-71
2021/03/24 07:55:23;;;;;;;6.55;3.40;;;;;;;3.50;58.11;100084.25;5046158;28;20086;-72
2021/03/24 07:57:58;;;;;;;5.57;3.20;;;;;;;3.53;57.56;100085.09;5045414;28;20037;-72
2021/03/24 08:00:45;;;;;;;5.32;3.13;;;;;;;3.60;57.30;100086.75;5045843;28;20025;-73
2021/03/24 08:03:31;;;;;;;4.78;2.40;;;;;;;3.50;57.62;100085.91;5046159;28;20090;-73
2021/03/24 08:06:08;;;;;;;7.43;4.40;;;;;;;3.71;56.78;100090.13;5044455;28;20407;-72
2021/03/24 08:09:06;;;;;;;6.00;3.90;;;;;;;3.54;56.25;100102.69;5044554;28;20065;-72
2021/03/24 08:11:57;;;;;;;9.15;4.43;;;;;;;4.17;56.54;100102.72;5045147;28;20035;-72
2021/03/24 08:14:50;;;;;;;6.22;3.60;;;;;;;3.56;55.96;100097.66;5045345;28;20033;-72
2021/03/24 08:17:42;;;;;;;4.93;2.90;;;;;;;3.87;54.38;100087.63;5044338;28;20036;-72
2021/03/24 08:20:29;;;;;;;4.00;2.40;;;;;;;3.85;53.48;100089.31;5045698;28;20104;-71
2021/03/24 08:23:15;;;;;;;7.60;3.65;;;;;;;3.94;55.49;100089.28;5045507;28;20111;-70
2021/03/24 08:25:52;;;;;;;7.45;4.10;;;;;;;4.31;54.02;100100.19;5073855;28;20528;-73
2021/03/24 08:28:29;;;;;;;8.50;4.20;;;;;;;4.22;54.96;100095.16;5068747;28;20416;-72
2021/03/24 08:31:23;;;;;;;7.35;3.22;;;;;;;4.14;54.63;100111.97;5085771;28;20024;-71
2021/03/24 08:34:15;;;;;;;6.57;3.97;;;;;;;4.07;54.00;100113.63;5066190;28;20039;-72
2021/03/24 08:37:10;;;;;;;12.85;6.35;;;;;;;4.67;55.51;100110.22;5086147;28;20035;-72
2021/03/24 08:39:39;;;;;;;7.28;3.40;;;;;;;4.55;53.72;100115.28;5086133;28;20764;-69
2021/03/24 08:42:33;;;;;;;4.40;3.10;;;;;;;4.07;53.64;100116.16;5086544;28;20142;-71
2021/03/24 08:45:12;;;;;;;6.97;3.50;;;;;;;4.34;53.29;100112.75;5046245;28;20120;-73
2021/03/24 08:47:41;;;;;;;7.32;3.45;;;;;;;4.17;52.74;100106.91;5085564;28;20153;-70
2021/03/24 08:50:30;;;;;;;7.90;3.65;;;;;;;4.05;52.12;100115.31;5086243;28;20036;-71
2021/03/24 08:53:16;;;;;;;4.57;2.90;;;;;;;3.89;54.19;100125.34;5086539;28;20027;-73
2021/03/24 08:56:16;;;;;;;5.07;2.90;;;;;;;3.84;54.61;100124.50;5105647;28;20039;-71
2021/03/24 08:59:02;;;;;;;5.05;3.38;;;;;;;4.03;53.65;100133.75;5105818;28;20040;-71
2021/03/24 09:01:50;;;;;;;10.43;4.93;;;;;;;3.98;55.79;100133.72;5106088;28;20104;-70
2021/03/24 09:04:46;;;;;;;7.13;4.40;;;;;;;3.79;56.94;100137.06;5087219;28;20067;-71
2021/03/24 09:07:21;;;;;;;6.05;3.15;;;;;;;3.65;55.43;100133.69;5087294;28;20031;-71
2021/03/24 09:10:23;;;;;;;6.50;4.05;;;;;;;4.04;55.92;100135.44;5105894;28;20480;-71
2021/03/24 09:13:03;;;;;;;6.47;3.15;;;;;;;3.54;55.62;100133.63;5106015;28;20027;-70
2021/03/24 09:15:37;;;;;;;5.32;2.60;;;;;;;3.66;54.00;100145.44;5105192;28;20488;-69
2021/03/24 09:18:15;;;;;;;8.05;4.65;;;;;;;4.29;53.91;100145.50;5091351;28;20497;-70
2021/03/24 09:21:05;;;;;;;4.65;2.67;;;;;;;4.74;52.41;100147.13;5084337;28;20093;-71
2021/03/24 09:23:49;;;;;;;5.47;2.80;;;;;;;5.64;51.29;100135.03;5066641;28;20046;-71
2021/03/24 09:26:39;;;;;;;6.80;3.80;;;;;;;5.39;50.89;100138.53;5084744;28;20471;-70
2021/03/24 09:29:11;;;;;;;7.60;3.60;;;;;;;6.80;47.53;100127.38;5084202;28;20149;-69
2021/03/24 09:31:50;;;;;;;;;;;;;;;6.57;47.34;100119.19;5085636;28;20562;-69
2021/03/24 09:34:44;;;;;;;7.22;3.92;;;;;;;5.53;48.02;100114.06;5084272;28;19955;-70
2021/03/24 09:37:14;;;;;;;10.10;3.80;;;;;;;5.72;47.84;100105.56;5069096;28;20546;-70
2021/03/24 09:39:51;;;;;;;6.63;3.30;;;;;;;6.63;45.14;100100.59;5088982;28;20032;-71
2021/03/24 09:42:36;;;;;;;6.78;3.00;;;;;;;6.49;45.12;100087.28;5070360;28;20028;-71
2021/03/24 09:45:12;;;;;;;5.13;2.55;;;;;;;6.89;43.13;100103.69;5087857;28;20035;-71
2021/03/24 09:48:24;;;;;;;5.90;3.13;;;;;;;7.07;42.34;100108.53;5070659;28;20044;-72
2021/03/24 09:51:11;;;;;;;4.72;2.83;;;;;;;8.00;41.94;100121.59;5036170;28;20040;-71
2021/03/24 09:53:40;;;;;;;5.70;3.00;;;;;;;7.64;41.89;100105.25;5068785;28;20115;-71
2021/03/24 09:56:15;;;;;;;5.88;2.30;;;;;;;6.13;44.67;100112.00;5069646;28;20033;-73
2021/03/24 09:59:13;;;;;;;3.53;2.40;;;;;;;7.17;41.62;100099.16;5068531;28;20066;-70
2021/03/24 10:01:42;;;;;;;3.35;2.08;;;;;;;5.92;42.88;100098.72;5067543;28;20063;-72
2021/03/24 10:04:19;;;;;;;4.50;1.95;;;;;;;5.86;42.56;100111.38;5068495;28;20021;-70
2021/03/24 10:07:05;;;;;;;4.90;2.45;;;;;;;7.31;41.32;100122.59;5068655;28;20414;-70
2021/03/24 10:09:43;;;;;;;4.15;2.50;;;;;;;6.43;44.10;100132.78;5068024;28;20116;-71
2021/03/24 10:12:34;;;;;;;5.07;2.88;;;;;;;6.33;45.46;100129.50;5049747;28;20030;-72
2021/03/24 10:15:21;;;;;;;5.55;3.70;;;;;;;7.06;44.87;100126.22;5068578;28;20032;-72
2021/03/24 10:17:47;;;;;;;5.57;3.13;;;;;;;7.03;44.11;100126.28;5068085;28;20052;-71
2021/03/24 10:20:25;;;;;;;7.95;3.80;;;;;;;6.81;47.87;100131.53;5067369;28;20028;-70
2021/03/24 10:23:08;;;;;;;8.30;4.40;;;;;;;5.75;46.31;100144.19;5068217;28;20043;-71
2021/03/24 10:25:45;;;;;;;10.60;4.65;;;;;;;6.42;47.01;100149.63;5068099;28;20095;-70
2021/03/24 10:28:21;;;;;;;5.60;3.15;;;;;;;5.44;45.40;100136.81;5068100;28;20036;-70
2021/03/24 10:31:01;;;;;;;6.03;2.70;;;;;;;6.16;49.68;100141.41;5049993;28;20039;-71
2021/03/24 10:33:38;;;;;;;6.20;3.20;;;;;;;6.91;45.73;100140.72;5068016;28;20027;-70
2021/03/24 10:36:20;;;;;;;5.10;3.10;;;;;;;5.80;44.56;100131.56;5066669;28;20143;-71
2021/03/24 10:39:21;;;;;;;5.20;2.97;;;;;;;6.39;45.10;100156.38;5066730;28;20484;-73
2021/03/24 10:42:18;;;;;;;5.75;3.20;;;;;;;5.94;45.89;100167.66;5066447;28;20036;-73
2021/03/24 10:44:51;;;;;;;5.80;2.78;;;;;;;6.68;46.28;100162.84;5068114;28;20067;-74
2021/03/24 10:47:39;;;;;;;3.80;2.38;;;;;;;6.21;44.39;100164.09;5067608;28;20044;-73
2021/03/24 10:50:33;;;;;;;6.13;2.70;;;;;;;7.16;44.20;100155.59;5063551;28;20442;-75
2021/03/24 10:52:59;;;;;;;4.10;1.95;;;;;;;6.58;47.41;100161.25;5108758;28;20054;-71
2021/03/24 10:55:29;;;;;;;5.53;2.33;;;;;;;7.61;47.92;100167.69;5108404;28;20082;-72
2021/03/24 10:58:34;;;;;;;4.95;2.80;;;;;;;7.10;48.25;100170.84;5089063;28;20024;-72
2021/03/24 11:01:18;;;;;;;6.03;2.83;;;;;;;7.22;51.11;100178.28;5108275;28;20111;-73
2021/03/24 11:03:48;;;;;;;4.07;2.28;;;;;;;7.50;48.90;100167.84;5107296;28;20104;-73
2021/03/24 11:06:23;;;;;;;4.95;2.42;;;;;;;8.20;46.56;100170.22;5108692;28;20020;-73
2021/03/24 11:08:58;;;;;;;2.88;1.85;;;;;;;7.22;44.29;100174.09;5108216;28;20084;-73
2021/03/24 11:11:48;;;;;;;3.97;2.50;;;;;;;7.69;44.24;100165.91;5090348;28;20038;-73
2021/03/24 11:14:31;;;;;;;3.25;2.33;;;;;;;8.61;42.64;100172.13;5078782;28;20527;-73
2021/03/24 11:17:08;;;;;;;3.25;2.10;;;;;;;8.83;42.52;100175.13;5108744;28;20088;-74
2021/03/24 11:19:45;;;;;;;4.68;2.30;;;;;;;8.60;42.67;100168.75;5089903;28;20034;-73
2021/03/24 11:22:45;;;;;;;3.47;2.67;;;;;;;8.73;39.57;100171.91;5089420;28;20416;-74
2021/03/24 11:25:31;;;;;;;3.20;1.83;;;;;;;9.08;38.68;100171.25;5077264;28;20647;-74
2021/03/24 11:28:23;;;;;;;3.97;1.80;;;;;;;8.66;39.33;100158.50;5067891;28;20494;-74
2021/03/24 11:31:31;;;;;;;3.38;1.70;;;;;;;9.07;38.95;100147.59;5068090;28;20036;-74
2021/03/24 11:34:04;;;;;;;2.95;1.88;;;;;;;7.88;41.71;100145.38;5065345;28;21366;-71
2021/03/24 11:36:44;;;;;;;5.30;2.33;;;;;;;7.62;40.61;100144.94;5067005;28;20076;-74
2021/03/24 11:39:23;;;;;;;7.00;3.47;;;;;;;7.36;40.63;100159.59;5068310;28;20029;-75
2021/03/24 11:41:50;;;;;;;2.47;1.67;;;;;;;7.73;37.37;100149.81;5065580;28;20477;-73
2021/03/24 11:44:19;;;;;;;3.00;1.60;;;;;;;8.69;36.18;100153.38;5067511;28;20029;-73
2021/03/24 11:47:11;;;;;;;5.57;2.30;;;;;;;9.00;40.65;100146.06;5067511;28;20033;-74
2021/03/24 11:50:18;;;;;;;4.75;3.15;;;;;;;8.52;41.41;100150.31;5066119;28;21163;-75
2021/03/24 11:53:00;;;;;;;4.22;2.40;;;;;;;8.21;40.02;100145.72;5027801;28;20077;-73
2021/03/24 11:56:05;;;;;;;3.50;2.30;;;;;;;8.69;39.67;100143.22;5025503;28;20068;-72
2021/03/24 11:59:08;;;;;;;5.50;3.30;;;;;;;9.40;39.89;100136.81;5025231;28;20080;-72
2021/03/24 12:02:06;;;;;;;5.75;3.40;;;;;;;9.38;35.85;100145.31;5026293;28;20033;-74
2021/03/24 12:04:47;;;;;;;4.85;2.80;;;;;;;9.83;35.30;100126.53;5025323;28;20044;-74
2021/03/24 12:07:18;;;;;;;4.10;2.08;;;;;;;9.26;34.61;100130.34;5027348;28;20033;-75
2021/03/24 12:10:23;;;;;;;3.13;1.92;;;;;;;9.45;34.02;100140.06;5025440;28;20079;-74
2021/03/24 12:13:10;;;;;;;4.60;1.65;;;;;;;10.17;33.41;100134.25;5016738;28;20156;-74
2021/03/24 12:15:57;;;;;;;4.95;1.85;;;;;;;7.44;36.67;100117.34;5027686;28;20091;-74
2021/03/24 12:18:23;;;;;;;2.95;1.70;;;;;;;7.36;34.72;100118.28;5041798;28;20099;-74
2021/03/24 12:20:51;;;;;;;4.18;2.25;;;;;;;6.81;36.24;100153.47;5025132;28;20108;-73
2021/03/24 12:23:17;;;;;;;4.50;1.88;;;;;;;6.37;40.75;100165.66;5024723;28;20025;-75
2021/03/24 12:25:50;;;;;;;4.97;2.80;;;;;;;6.18;47.56;100171.72;5052838;28;20064;-73